Time;durP1;ratioP1;P1;durP2;ratioP2;P2;SDS_P1;SDS_P2;PMS_P1;PMS_P2;Temp;Humidity;BMP_temperature;BMP_pressure;BME280_temperature;BME280_humidity;BME280_pressure;Samples;Min_cycle;Max_cycle;Signal;HPM_P1;HPM_P2
2023/06/22 00:01:47;;;;;;;18.58;6.30;;;;;;;21.56;100.00;96474.00;4983593;28;20488;-67
2023/06/22 00:04:12;;;;;;;19.38;6.13;;;;;;;21.53;100.00;96465.75;4977825;28;20042;-68
2023/06/22 00:06:37;;;;;;;18.27;6.22;;;;;;;;;;4993224;28;20356;-67
2023/06/22 00:09:03;;;;;;;19.97;7.00;;;;;;;21.70;99.87;96466.44;5000808;28;20129;-66
2023/06/22 00:11:28;;;;;;;14.95;6.13;;;;;;;21.76;99.53;96476.56;5000754;28;20295;-67
2023/06/22 00:13:54;;;;;;;16.42;5.28;;;;;;;21.76;99.03;96473.00;5002112;28;20092;-67
2023/06/22 00:16:19;;;;;;;16.35;5.72;;;;;;;21.87;98.54;96475.47;4993203;28;20042;-67
2023/06/22 00:18:47;;;;;;;12.55;5.60;;;;;;;21.95;97.53;96474.78;4983882;28;20042;-67
2023/06/22 00:21:13;;;;;;;17.58;6.00;;;;;;;21.96;97.59;96469.97;4997041;28;20042;-66
2023/06/22 00:23:38;;;;;;;20.00;5.85;;;;;;;22.04;97.15;96464.94;4985201;28;20041;-67
2023/06/22 00:26:03;;;;;;;15.15;5.13;;;;;;;22.01;97.23;96455.47;4988841;28;20487;-64
2023/06/22 00:28:29;;;;;;;19.17;5.80;;;;;;;22.01;97.03;96463.84;5000559;28;20038;-67
2023/06/22 00:30:54;;;;;;;15.43;5.80;;;;;;;21.89;97.44;96462.63;4984775;28;20038;-66
2023/06/22 00:33:20;;;;;;;17.42;6.03;;;;;;;21.82;98.25;96448.91;4976550;28;20053;-67
2023/06/22 00:35:45;;;;;;;13.75;5.82;;;;;;;21.80;98.63;96451.38;4982956;28;20053;-66
2023/06/22 00:38:11;;;;;;;18.58;6.38;;;;;;;21.68;99.18;96454.94;4978068;28;20045;-67
2023/06/22 00:40:36;;;;;;;17.52;6.00;;;;;;;21.76;98.65;96459.06;4980669;28;20045;-66
2023/06/22 00:43:02;;;;;;;14.95;5.72;;;;;;;;;;4999909;28;20038;-66
2023/06/22 00:45:27;;;;;;;14.85;6.10;;;;;;;21.66;99.46;96461.00;4996658;28;20506;-66
2023/06/22 00:47:55;;;;;;;16.13;6.13;;;;;;;21.62;99.79;96465.09;4996097;28;20491;-67
2023/06/22 00:50:23;;;;;;;18.40;6.18;;;;;;;21.45;100.00;96456.84;4999163;28;20057;-65
2023/06/22 00:52:56;;;;;;;21.65;6.32;;;;;;;21.28;100.00;96469.28;4989691;28;20072;-66
2023/06/22 00:55:23;;;;;;;18.95;6.80;;;;;;;21.22;100.00;96455.13;4977775;28;20267;-67
2023/06/22 00:57:49;;;;;;;17.55;6.95;;;;;;;21.16;100.00;96463.25;4982034;28;20050;-67
2023/06/22 01:00:19;;;;;;;14.43;6.53;;;;;;;21.16;100.00;96466.03;4983901;28;20399;-68
2023/06/22 01:02:45;;;;;;;20.35;6.28;;;;;;;21.18;100.00;96466.38;4982539;28;20574;-67
2023/06/22 01:05:15;;;;;;;16.10;6.50;;;;;;;21.17;100.00;96472.38;4978044;28;20042;-68
2023/06/22 01:07:54;;;;;;;16.15;5.78;;;;;;;21.15;100.00;96475.59;4995968;28;20046;-66
2023/06/22 01:10:41;;;;;;;20.47;6.43;;;;;;;21.05;100.00;96473.94;4997062;28;20038;-69
2023/06/22 01:13:16;;;;;;;14.93;5.75;;;;;;;21.02;100.00;96474.03;4996911;28;20137;-65
2023/06/22 01:15:49;;;;;;;17.88;6.03;;;;;;;21.05;100.00;96471.13;5002202;28;20042;-67
2023/06/22 01:18:18;;;;;;;17.65;6.20;;;;;;;20.85;100.00;96478.84;4989993;28;20084;-67
2023/06/22 01:20:44;;;;;;;16.57;6.10;;;;;;;20.71;100.00;96477.28;5002024;28;20069;-66
2023/06/22 01:23:28;;;;;;;23.85;6.50;;;;;;;20.58;100.00;96483.53;4995735;28;20037;-67
2023/06/22 01:26:17;;;;;;;19.48;6.45;;;;;;;20.46;100.00;96481.47;4999509;28;20042;-67
2023/06/22 01:28:51;;;;;;;17.55;6.53;;;;;;;20.54;100.00;96476.47;5001337;28;20038;-67
2023/06/22 01:31:22;;;;;;;17.55;6.68;;;;;;;20.31;100.00;96485.81;4996462;28;20050;-66
2023/06/22 01:33:53;;;;;;;17.60;6.55;;;;;;;20.28;100.00;96489.50;5001340;28;20038;-66
2023/06/22 01:36:19;;;;;;;15.77;6.35;;;;;;;20.24;100.00;96487.59;4997181;28;20040;-68
2023/06/22 01:38:46;;;;;;;16.45;6.30;;;;;;;20.21;100.00;96485.66;5001156;28;20479;-66
2023/06/22 01:41:12;;;;;;;18.58;6.45;;;;;;;20.25;100.00;96493.91;4995694;28;20039;-67
2023/06/22 01:43:38;;;;;;;16.55;6.75;;;;;;;20.20;100.00;96503.59;5002809;28;20068;-67
2023/06/22 01:46:04;;;;;;;19.15;6.40;;;;;;;20.16;100.00;96508.44;4998007;28;20038;-68
2023/06/22 01:48:30;;;;;;;16.80;6.32;;;;;;;20.10;100.00;96506.63;5001139;28;20045;-67
2023/06/22 01:50:56;;;;;;;21.15;7.50;;;;;;;19.93;100.00;96517.72;4990368;28;20042;-68
2023/06/22 01:53:25;;;;;;;15.90;7.03;;;;;;;19.88;100.00;96507.13;5000339;28;20416;-68
2023/06/22 01:55:50;;;;;;;17.30;6.20;;;;;;;19.84;100.00;96503.63;5024036;28;20041;-68
2023/06/22 01:58:16;;;;;;;19.90;6.80;;;;;;;19.75;100.00;96511.78;5018878;28;20503;-67
2023/06/22 02:00:52;;;;;;;22.80;7.03;;;;;;;19.79;100.00;96512.47;5023121;28;20068;-68
2023/06/22 02:03:26;;;;;;;16.75;6.50;;;;;;;19.72;100.00;96510.66;5019094;28;20033;-65
2023/06/22 02:06:07;;;;;;;15.00;6.43;;;;;;;19.72;100.00;96521.75;5024226;28;20124;-66
2023/06/22 02:08:41;;;;;;;18.23;6.28;;;;;;;19.75;100.00;96528.47;5024592;28;20490;-65
2023/06/22 02:11:09;;;;;;;16.00;6.82;;;;;;;19.67;100.00;96527.81;5019037;28;20128;-65
2023/06/22 02:13:37;;;;;;;13.68;6.70;;;;;;;19.59;100.00;96534.75;5023456;28;20049;-65
2023/06/22 02:16:03;;;;;;;15.27;6.20;;;;;;;19.68;100.00;96534.97;5002050;28;20046;-68
2023/06/22 02:18:28;;;;;;;17.90;6.35;;;;;;;19.54;100.00;96532.50;4971703;28;20047;-65
2023/06/22 02:20:54;;;;;;;19.85;7.43;;;;;;;19.44;100.00;96532.28;4965703;28;20584;-65
2023/06/22 02:23:19;;;;;;;19.58;7.00;;;;;;;19.53;100.00;96534.47;4960148;28;20035;-66
2023/06/22 02:25:45;;;;;;;16.17;7.07;;;;;;;19.56;100.00;96535.63;4965977;28;20043;-68
2023/06/22 02:28:10;;;;;;;13.30;6.70;;;;;;;19.63;100.00;96541.03;4960512;28;20077;-65
2023/06/22 02:30:36;;;;;;;19.60;7.68;;;;;;;19.64;100.00;96542.56;4980060;28;20481;-65
2023/06/22 02:33:01;;;;;;;17.58;6.35;;;;;;;19.61;100.00;96546.22;4965607;28;20039;-67
2023/06/22 02:35:31;;;;;;;18.73;7.15;;;;;;;19.67;100.00;96555.59;4979997;28;20046;-67
2023/06/22 02:38:00;;;;;;;15.35;6.80;;;;;;;19.69;100.00;96542.06;4984130;28;20447;-67
2023/06/22 02:40:26;;;;;;;16.35;7.05;;;;;;;19.44;100.00;96565.59;4981472;28;20042;-66
2023/06/22 02:42:51;;;;;;;17.20;6.68;;;;;;;19.38;100.00;96569.31;4984724;28;20046;-67
2023/06/22 02:45:16;;;;;;;17.02;6.97;;;;;;;19.21;100.00;96568.47;4980557;28;20045;-68
2023/06/22 02:47:42;;;;;;;18.20;7.07;;;;;;;19.00;100.00;96569.69;4985504;28;20038;-68
2023/06/22 02:50:08;;;;;;;15.30;7.38;;;;;;;18.88;100.00;96569.06;4998013;28;20046;-66
2023/06/22 02:52:33;;;;;;;15.38;7.45;;;;;;;18.96;100.00;96563.38;4997105;28;20125;-67
2023/06/22 02:54:59;;;;;;;18.83;7.40;;;;;;;18.72;100.00;96550.31;5014136;28;20046;-67
2023/06/22 02:57:24;;;;;;;18.65;8.25;;;;;;;18.56;100.00;96557.75;5019486;28;20076;-67
2023/06/22 02:59:50;;;;;;;18.75;7.50;;;;;;;18.57;100.00;96562.88;5022774;28;20049;-66
2023/06/22 03:02:15;;;;;;;19.90;8.02;;;;;;;18.53;100.00;96570.47;5017891;28;20053;-67
2023/06/22 03:04:40;;;;;;;21.02;7.95;;;;;;;18.42;100.00;96567.88;5022986;28;20042;-66
2023/06/22 03:07:06;;;;;;;13.38;7.07;;;;;;;18.47;100.00;96572.16;5018456;28;20372;-67
2023/06/22 03:09:31;;;;;;;19.42;8.90;;;;;;;18.55;100.00;96570.84;5024344;28;20052;-67
2023/06/22 03:11:57;;;;;;;17.35;7.88;;;;;;;18.50;100.00;96568.53;5023192;28;20041;-66
2023/06/22 03:14:22;;;;;;;20.40;10.63;;;;;;;18.43;100.00;96569.44;5016025;28;20053;-67
2023/06/22 03:16:48;;;;;;;25.75;11.32;;;;;;;18.26;100.00;96576.84;4990941;28;20089;-66
2023/06/22 03:19:13;;;;;;;15.73;7.80;;;;;;;18.19;100.00;96567.88;5010378;28;20042;-65
2023/06/22 03:21:39;;;;;;;17.38;7.00;;;;;;;18.23;100.00;96565.81;5003038;28;20076;-65
2023/06/22 03:24:06;;;;;;;18.98;8.43;;;;;;;18.23;100.00;96557.50;4988858;28;20133;-65
2023/06/22 03:26:31;;;;;;;16.77;7.75;;;;;;;18.17;100.00;96554.44;4985701;28;20045;-65
2023/06/22 03:28:57;;;;;;;18.58;8.10;;;;;;;17.97;100.00;96548.81;5003293;28;20038;-65
2023/06/22 03:31:23;;;;;;;16.30;8.07;;;;;;;18.08;100.00;96543.88;4998359;28;20045;-66
2023/06/22 03:33:49;;;;;;;23.48;7.93;;;;;;;18.15;100.00;96543.75;5002248;28;20042;-66
2023/06/22 03:36:22;;;;;;;21.30;8.85;;;;;;;18.17;100.00;96548.09;4998456;28;20044;-66
2023/06/22 03:38:48;;;;;;;18.48;8.10;;;;;;;18.47;100.00;96550.75;5003519;28;20038;-65
2023/06/22 03:41:14;;;;;;;17.20;8.48;;;;;;;18.76;100.00;96547.47;5000175;28;20033;-68
2023/06/22 03:43:39;;;;;;;16.33;7.13;;;;;;;19.05;100.00;96549.72;5005147;28;20049;-68
2023/06/22 03:46:05;;;;;;;20.98;7.85;;;;;;;19.07;100.00;96545.34;4999445;28;20129;-67
2023/06/22 03:48:31;;;;;;;17.27;7.85;;;;;;;18.85;100.00;96550.53;5002334;28;20041;-67
2023/06/22 03:50:56;;;;;;;15.18;7.20;;;;;;;18.84;100.00;96545.38;5003270;28;20538;-67
2023/06/22 03:53:22;;;;;;;23.02;9.25;;;;;;;18.75;100.00;96539.59;4996509;28;20455;-68
2023/06/22 03:55:52;;;;;;;27.85;9.30;;;;;;;18.82;100.00;96548.59;5003423;28;20042;-66
2023/06/22 03:58:18;;;;;;;16.38;8.00;;;;;;;19.00;100.00;96547.47;4985218;28;20041;-68
2023/06/22 04:00:48;;;;;;;14.32;7.28;;;;;;;19.28;100.00;96541.34;4983343;28;20049;-67
2023/06/22 04:03:15;;;;;;;16.10;8.05;;;;;;;19.15;100.00;96532.09;4976297;28;20118;-69
2023/06/22 04:05:41;;;;;;;22.92;8.50;;;;;;;19.13;100.00;96537.28;4982824;28;20035;-68
2023/06/22 04:08:07;;;;;;;14.15;6.75;;;;;;;19.44;100.00;96542.59;4977922;28;20034;-70
2023/06/22 04:10:32;;;;;;;22.90;7.10;;;;;;;19.74;100.00;96549.91;4980771;28;20049;-68
2023/06/22 04:12:58;;;;;;;20.15;7.60;;;;;;;19.92;100.00;96545.97;4983170;28;20038;-68
2023/06/22 04:15:24;;;;;;;13.65;7.10;;;;;;;19.58;100.00;96536.75;4981848;28;20046;-69
2023/06/22 04:17:49;;;;;;;18.33;7.75;;;;;;;19.28;100.00;96540.56;4993745;28;20044;-70
2023/06/22 04:20:15;;;;;;;11.40;6.55;;;;;;;19.40;100.00;96542.69;4997496;28;20054;-68
2023/06/22 04:22:40;;;;;;;18.23;6.72;;;;;;;19.79;100.00;96543.84;5001941;28;20056;-69
2023/06/22 04:25:07;;;;;;;15.45;7.25;;;;;;;20.14;100.00;96526.78;4997425;28;20118;-68
2023/06/22 04:27:36;;;;;;;19.92;6.95;;;;;;;20.41;100.00;96524.50;5002372;28;20038;-68
2023/06/22 04:30:03;;;;;;;16.13;7.32;;;;;;;20.59;100.00;96529.59;5000473;28;20034;-71
2023/06/22 04:32:29;;;;;;;16.52;6.90;;;;;;;20.85;100.00;96531.75;5001474;28;20050;-68
2023/06/22 04:34:56;;;;;;;14.02;6.03;;;;;;;21.19;100.00;96526.44;5000947;28;20089;-67
2023/06/22 04:37:23;;;;;;;15.02;6.72;;;;;;;21.57;100.00;96527.72;4998001;28;20480;-68
2023/06/22 04:39:49;;;;;;;12.93;6.90;;;;;;;21.49;100.00;96515.25;5002151;28;20034;-68
2023/06/22 04:42:14;;;;;;;18.23;8.40;;;;;;;19.88;100.00;96504.34;4986076;28;20510;-69
2023/06/22 04:44:41;;;;;;;18.10;7.47;;;;;;;21.04;100.00;96516.13;4981928;28;20058;-67
2023/06/22 04:47:08;;;;;;;20.38;6.63;;;;;;;21.99;100.00;96518.50;4979025;28;20042;-68
2023/06/22 04:49:37;;;;;;;16.65;7.28;;;;;;;22.89;100.00;96508.72;4990714;28;20129;-68
2023/06/22 04:52:07;;;;;;;17.80;7.77;;;;;;;22.84;98.57;96526.03;5000723;28;20038;-70
2023/06/22 04:54:33;;;;;;;16.63;8.20;;;;;;;22.32;100.00;96527.41;5005117;28;20109;-68
2023/06/22 04:57:00;;;;;;;18.40;8.48;;;;;;;21.39;100.00;96515.09;5002780;28;20040;-67
2023/06/22 04:59:28;;;;;;;18.10;8.23;;;;;;;21.30;100.00;96514.19;4996997;28;20046;-67
2023/06/22 05:01:58;;;;;;;22.73;7.93;;;;;;;21.66;100.00;96516.72;5002419;28;20038;-67
2023/06/22 05:04:23;;;;;;;13.30;7.78;;;;;;;22.19;100.00;96507.13;4996865;28;20056;-67
2023/06/22 05:06:50;;;;;;;19.80;7.93;;;;;;;22.61;100.00;96510.47;5001486;28;20046;-68
2023/06/22 05:09:16;;;;;;;13.35;8.05;;;;;;;22.22;100.00;96518.16;4996459;28;20399;-68
2023/06/22 05:11:41;;;;;;;18.83;8.50;;;;;;;21.58;100.00;96521.72;5001669;28;20037;-66
2023/06/22 05:14:07;;;;;;;16.08;8.48;;;;;;;21.92;100.00;96517.50;4995563;28;20041;-68
2023/06/22 05:16:33;;;;;;;14.95;7.60;;;;;;;23.02;100.00;96519.06;4999546;28;20045;-67
2023/06/22 05:18:58;;;;;;;21.08;7.45;;;;;;;22.71;100.00;96531.69;5000782;28;20108;-66
2023/06/22 05:21:26;;;;;;;18.17;8.68;;;;;;;22.35;100.00;96529.31;4996904;28;20048;-70
2023/06/22 05:23:53;;;;;;;15.40;7.65;;;;;;;22.78;100.00;96513.91;5001868;28;20128;-69
2023/06/22 05:26:19;;;;;;;17.77;8.07;;;;;;;23.03;98.54;96510.22;4995712;28;20092;-66
2023/06/22 05:28:45;;;;;;;15.50;6.78;;;;;;;24.26;92.11;96509.16;5004252;28;20049;-67
2023/06/22 05:31:13;;;;;;;16.48;7.07;;;;;;;25.68;80.59;96508.22;5001852;28;20050;-67
2023/06/22 05:33:39;;;;;;;18.75;7.47;;;;;;;25.27;81.94;96510.50;5003854;28;20399;-67
2023/06/22 05:36:05;;;;;;;18.08;6.95;;;;;;;24.82;82.37;96509.25;5000133;28;20080;-72
2023/06/22 05:38:30;;;;;;;21.15;7.00;;;;;;;24.13;86.49;96514.09;5020624;28;20103;-70
2023/06/22 05:40:56;;;;;;;21.27;7.38;;;;;;;25.39;80.13;96509.56;5005764;28;20054;-66
2023/06/22 05:43:21;;;;;;;18.08;7.03;;;;;;;27.41;68.36;96514.50;4985394;28;20687;-68
2023/06/22 05:45:47;;;;;;;15.93;6.68;;;;;;;28.37;61.60;96507.56;5005548;28;20136;-69
2023/06/22 05:48:12;;;;;;;15.77;7.15;;;;;;;26.09;69.85;96505.88;4999779;28;20128;-71
2023/06/22 05:50:38;;;;;;;19.10;7.00;;;;;;;25.15;76.94;96506.59;5005393;28;20038;-67
2023/06/22 05:53:03;;;;;;;23.02;7.05;;;;;;;25.49;74.83;96510.31;4999556;28;20078;-76
2023/06/22 05:55:29;;;;;;;18.33;7.68;;;;;;;25.18;80.14;96509.22;5003697;28;20068;-71
2023/06/22 05:57:54;;;;;;;16.08;7.10;;;;;;;27.06;69.18;96509.47;5008163;28;20090;-67
2023/06/22 06:00:21;;;;;;;14.82;7.40;;;;;;;26.37;72.39;96514.19;5000786;28;20061;-69
2023/06/22 06:02:49;;;;;;;24.63;11.02;;;;;;;28.76;61.68;96515.81;5003730;28;20037;-68
2023/06/22 06:05:14;;;;;;;17.33;7.15;;;;;;;28.29;61.39;96520.50;5000616;28;20041;-68
2023/06/22 06:07:44;;;;;;;21.35;7.20;;;;;;;28.23;59.22;96523.25;5004732;28;20100;-67
2023/06/22 06:10:10;;;;;;;18.38;6.95;;;;;;;26.84;65.12;96516.19;5000109;28;20077;-67
2023/06/22 06:12:35;;;;;;;16.70;6.85;;;;;;;27.41;65.28;96517.31;5003802;28;20095;-69
2023/06/22 06:15:01;;;;;;;17.00;7.55;;;;;;;24.88;78.16;96507.38;5003888;28;20061;-65
2023/06/22 06:17:27;;;;;;;21.60;8.02;;;;;;;24.16;83.34;96513.16;4980075;28;20060;-68
2023/06/22 06:19:52;;;;;;;14.68;8.23;;;;;;;24.45;83.08;96504.34;4985058;28;20035;-69
2023/06/22 06:22:18;;;;;;;14.35;6.93;;;;;;;25.71;77.57;96505.25;4981407;28;20122;-68
2023/06/22 06:24:45;;;;;;;18.90;7.60;;;;;;;26.68;71.41;96514.59;5003670;28;20045;-68
2023/06/22 06:27:10;;;;;;;22.25;8.32;;;;;;;24.77;78.93;96507.84;4999171;28;20141;-68
2023/06/22 06:29:36;;;;;;;18.48;7.97;;;;;;;26.50;71.71;96509.84;5004223;28;20196;-67
2023/06/22 06:32:01;;;;;;;14.38;7.15;;;;;;;25.49;77.42;96516.66;5003817;28;20077;-67
2023/06/22 06:34:26;;;;;;;13.68;6.25;;;;;;;26.86;72.46;96516.50;4998620;28;20133;-67
2023/06/22 06:36:52;;;;;;;18.13;7.60;;;;;;;26.70;70.33;96514.91;5003556;28;20406;-67
2023/06/22 06:39:17;;;;;;;15.38;8.07;;;;;;;24.87;79.12;96503.81;4999304;28;20160;-66
2023/06/22 06:41:42;;;;;;;17.35;7.43;;;;;;;24.21;84.53;96501.38;5004657;28;20061;-67
2023/06/22 06:44:08;;;;;;;18.40;7.95;;;;;;;24.69;83.35;96507.38;5014627;28;20034;-68
2023/06/22 06:46:33;;;;;;;21.88;7.85;;;;;;;24.21;85.23;96504.94;5003261;28;20046;-68
2023/06/22 06:48:58;;;;;;;19.40;8.32;;;;;;;24.02;88.92;96497.72;5004400;28;20135;-69
2023/06/22 06:51:24;;;;;;;18.25;8.35;;;;;;;24.46;85.48;96502.34;4998474;28;20045;-68
2023/06/22 06:53:49;;;;;;;19.25;7.50;;;;;;;24.78;85.08;96496.19;5003358;28;20514;-68
2023/06/22 06:56:15;;;;;;;16.70;7.70;;;;;;;25.13;82.15;96512.66;4999139;28;20041;-68
2023/06/22 06:58:42;;;;;;;16.05;8.38;;;;;;;24.75;82.43;96510.34;5003042;28;20157;-70
2023/06/22 07:01:08;;;;;;;17.10;7.40;;;;;;;26.48;73.12;96492.72;4999239;28;20148;-67
2023/06/22 07:03:33;;;;;;;15.32;7.22;;;;;;;25.76;77.40;96509.44;5000914;28;20037;-69
2023/06/22 07:05:59;;;;;;;15.15;7.40;;;;;;;25.04;83.38;96517.50;5003336;28;20065;-68
2023/06/22 07:08:24;;;;;;;20.38;6.43;;;;;;;27.71;70.63;96520.88;4999091;28;20042;-67
2023/06/22 07:10:51;;;;;;;16.77;6.28;;;;;;;30.58;56.23;96522.59;5009260;28;20041;-68
2023/06/22 07:13:16;;;;;;;14.43;7.05;;;;;;;29.96;56.40;96524.22;5018478;28;20037;-66
2023/06/22 07:15:42;;;;;;;17.00;7.40;;;;;;;28.31;62.97;96524.41;5011263;28;20069;-66
2023/06/22 07:18:07;;;;;;;17.77;6.93;;;;;;;30.50;54.73;96518.69;4968935;28;20047;-66
2023/06/22 07:20:32;;;;;;;17.92;6.38;;;;;;;32.25;49.97;96524.78;4963865;28;20109;-66
2023/06/22 07:22:58;;;;;;;13.25;5.65;;;;;;;32.80;47.52;96530.84;4964503;28;20046;-67
2023/06/22 07:25:23;;;;;;;14.00;6.00;;;;;;;33.90;43.40;96534.13;4959425;28;20426;-68
2023/06/22 07:28:03;;;;;;;16.73;6.65;;;;;;;34.77;40.78;96531.53;4978657;28;20038;-68
2023/06/22 07:30:33;;;;;;;16.58;6.45;;;;;;;33.87;41.70;96527.44;4981719;28;20116;-68
2023/06/22 07:33:03;;;;;;;15.10;5.82;;;;;;;34.36;41.17;96529.63;4982621;28;20042;-67
2023/06/22 07:35:29;;;;;;;16.23;5.78;;;;;;;35.10;39.74;96529.56;4994071;28;20037;-68
2023/06/22 07:37:54;;;;;;;15.73;6.15;;;;;;;34.84;38.66;96538.69;5002516;28;20475;-67
2023/06/22 07:40:20;;;;;;;13.10;5.50;;;;;;;35.16;38.74;96526.66;4997354;28;20076;-66
2023/06/22 07:42:48;;;;;;;13.00;5.78;;;;;;;35.18;37.77;96524.03;5004040;28;20132;-69
2023/06/22 07:45:13;;;;;;;16.08;5.03;;;;;;;36.32;37.54;96523.88;4998824;28;20042;-67
2023/06/22 07:47:38;;;;;;;9.93;4.78;;;;;;;37.10;35.55;96527.28;5003123;28;20052;-69
2023/06/22 07:50:05;;;;;;;14.95;5.80;;;;;;;36.14;36.56;96519.75;4997660;28;20574;-75
2023/06/22 07:52:31;;;;;;;11.20;5.68;;;;;;;36.66;35.74;96520.38;5002459;28;20565;-68
2023/06/22 07:54:56;;;;;;;11.00;5.57;;;;;;;36.24;35.66;96518.06;5003213;28;20152;-68
2023/06/22 07:57:22;;;;;;;14.00;6.05;;;;;;;36.77;35.36;96519.44;4997961;28;20920;-66
2023/06/22 07:59:48;;;;;;;10.88;5.40;;;;;;;36.80;35.30;96526.91;5001884;28;20569;-68
2023/06/22 08:02:13;;;;;;;14.50;6.25;;;;;;;33.17;40.68;96524.03;4998278;28;20064;-71
2023/06/22 08:04:39;;;;;;;13.45;6.07;;;;;;;30.92;48.07;96505.81;5005235;28;20034;-68
2023/06/22 08:07:05;;;;;;;18.25;7.18;;;;;;;29.05;54.09;96511.28;5000342;28;20108;-75
2023/06/22 08:09:32;;;;;;;17.95;7.07;;;;;;;30.56;50.62;96515.88;5002648;28;20489;-70
2023/06/22 08:11:58;;;;;;;12.43;7.13;;;;;;;28.48;55.42;96518.22;5002628;28;20439;-68
2023/06/22 08:14:27;;;;;;;12.48;6.43;;;;;;;29.10;57.33;96528.25;4996964;28;20052;-68
2023/06/22 08:16:53;;;;;;;15.30;6.65;;;;;;;31.02;50.10;96538.22;4994842;28;20046;-67
2023/06/22 08:19:18;;;;;;;25.38;6.88;;;;;;;32.06;48.26;96554.94;4996711;28;20514;-68
2023/06/22 08:21:44;;;;;;;13.38;6.63;;;;;;;30.74;52.40;96577.66;4988119;28;20041;-66
2023/06/22 08:24:09;;;;;;;18.27;8.23;;;;;;;29.89;55.42;96604.50;4977335;28;20060;-67
2023/06/22 08:26:37;;;;;;;17.83;7.40;;;;;;;29.15;58.10;96614.19;4982673;28;20057;-66
2023/06/22 08:29:03;;;;;;;12.60;8.02;;;;;;;28.17;61.84;96607.63;4997013;28;20048;-71
2023/06/22 08:31:30;;;;;;;17.02;7.28;;;;;;;27.83;64.24;96606.25;5001469;28;20041;-65
2023/06/22 08:33:55;;;;;;;17.05;7.13;;;;;;;27.70;65.58;96603.75;5001849;28;20049;-66
2023/06/22 08:36:21;;;;;;;13.88;7.38;;;;;;;27.41;67.88;96598.88;4996219;28;20560;-67
2023/06/22 08:38:50;;;;;;;14.88;7.93;;;;;;;27.18;68.01;96629.31;5001950;28;20091;-69
2023/06/22 08:41:15;;;;;;;17.58;8.10;;;;;;;27.19;69.49;96621.63;4996884;28;20038;-67
2023/06/22 08:43:41;;;;;;;19.58;7.60;;;;;;;27.32;68.42;96604.56;5001255;28;20053;-67
2023/06/22 08:46:06;;;;;;;17.65;8.30;;;;;;;27.49;68.32;96616.91;4996810;28;20045;-68
2023/06/22 08:48:32;;;;;;;18.20;8.18;;;;;;;27.45;67.96;96644.44;5002083;28;20046;-67
2023/06/22 08:50:57;;;;;;;16.33;7.00;;;;;;;27.71;67.07;96610.13;5002034;28;20041;-67
2023/06/22 08:53:22;;;;;;;17.27;6.55;;;;;;;28.13;64.92;96623.94;4996279;28;20053;-69
2023/06/22 08:55:50;;;;;;;16.70;6.68;;;;;;;28.40;63.38;96630.53;5001429;28;20395;-69
2023/06/22 08:58:16;;;;;;;14.40;7.00;;;;;;;28.28;64.10;96611.91;4995560;28;20042;-66
2023/06/22 09:00:41;;;;;;;21.40;8.00;;;;;;;27.89;65.94;96615.56;5001826;28;20550;-68
2023/06/22 09:03:06;;;;;;;13.80;6.38;;;;;;;27.79;66.87;96636.63;5014519;28;20034;-66
2023/06/22 09:05:32;;;;;;;13.93;6.90;;;;;;;27.94;67.51;96631.81;5006111;28;20046;-67
2023/06/22 09:07:58;;;;;;;10.82;6.32;;;;;;;28.92;63.25;96639.25;5006235;28;20124;-69
2023/06/22 09:10:24;;;;;;;23.45;7.60;;;;;;;29.56;59.93;96633.91;4998806;28;20045;-68
2023/06/22 09:12:50;;;;;;;14.18;6.28;;;;;;;29.83;59.58;96632.66;5005461;28;20061;-68
2023/06/22 09:15:15;;;;;;;25.38;11.25;;;;;;;30.04;58.04;96633.38;5001110;28;20054;-71
2023/06/22 09:17:41;;;;;;;21.00;7.88;;;;;;;30.36;56.29;96621.34;5003376;28;20122;-68
2023/06/22 09:20:10;;;;;;;16.75;8.25;;;;;;;30.16;55.47;96625.00;4990416;28;20064;-67
2023/06/22 09:22:35;;;;;;;17.58;7.65;;;;;;;29.92;56.10;96614.78;4996361;28;20128;-66
2023/06/22 09:25:01;;;;;;;14.57;6.95;;;;;;;30.20;54.41;96619.94;5020753;28;20041;-67
2023/06/22 09:27:26;;;;;;;21.85;8.10;;;;;;;30.42;54.55;96613.69;5014992;28;20042;-66
2023/06/22 09:29:52;;;;;;;16.45;7.35;;;;;;;30.59;53.27;96614.56;5005300;28;20042;-69
2023/06/22 09:32:17;;;;;;;18.92;7.65;;;;;;;30.35;53.57;96605.69;5001038;28;20077;-67
2023/06/22 09:34:43;;;;;;;14.57;6.93;;;;;;;31.06;52.02;96601.00;5003591;28;20380;-68
2023/06/22 09:37:08;;;;;;;15.20;7.38;;;;;;;31.21;51.73;96595.13;5000845;28;20037;-71
2023/06/22 09:39:33;;;;;;;15.43;6.68;;;;;;;30.96;52.29;96588.34;5005096;28;20391;-66
2023/06/22 09:42:00;;;;;;;18.05;6.95;;;;;;;31.29;49.87;96575.59;5004825;28;20045;-72
2023/06/22 09:44:25;;;;;;;15.07;6.50;;;;;;;30.94;51.08;96568.28;5014866;28;20124;-67
2023/06/22 09:46:51;;;;;;;17.50;6.47;;;;;;;31.68;49.99;96560.81;5004566;28;20042;-69
2023/06/22 09:49:16;;;;;;;16.17;6.32;;;;;;;32.20;48.48;96562.41;5014955;28;20042;-67
2023/06/22 09:51:41;;;;;;;14.57;6.65;;;;;;;32.50;47.29;96562.63;5007880;28;20038;-67
2023/06/22 09:54:07;;;;;;;14.95;6.28;;;;;;;32.32;47.47;96575.28;5006388;28;20081;-67
2023/06/22 09:56:32;;;;;;;14.75;6.18;;;;;;;31.71;48.50;96573.94;5004788;28;20558;-66
2023/06/22 09:58:57;;;;;;;14.98;6.60;;;;;;;31.91;48.15;96575.75;5003675;28;20037;-67
2023/06/22 10:01:24;;;;;;;13.75;6.13;;;;;;;31.98;48.74;96561.09;5000711;28;20131;-68
2023/06/22 10:03:54;;;;;;;16.00;8.10;;;;;;;29.61;54.17;96553.41;5004504;28;20042;-67
2023/06/22 10:06:19;;;;;;;17.27;6.70;;;;;;;31.05;51.98;96556.25;5000089;28;20057;-69
2023/06/22 10:08:45;;;;;;;15.35;7.28;;;;;;;30.80;51.26;96552.25;5005224;28;20037;-67
2023/06/22 10:11:10;;;;;;;19.73;6.90;;;;;;;30.55;51.43;96540.56;4999873;28;20045;-66
2023/06/22 10:13:36;;;;;;;18.05;7.00;;;;;;;30.00;53.95;96539.66;5001347;28;20092;-67
2023/06/22 10:16:01;;;;;;;17.40;6.60;;;;;;;30.15;53.02;96533.88;5005398;28;20514;-72
2023/06/22 10:18:27;;;;;;;18.17;6.50;;;;;;;30.08;54.32;96537.16;5001413;28;20042;-70
2023/06/22 10:20:52;;;;;;;13.85;6.40;;;;;;;29.95;54.24;96543.22;4995250;28;20085;-68
2023/06/22 10:23:19;;;;;;;18.48;6.93;;;;;;;31.45;50.10;96542.97;5014579;28;20402;-69
2023/06/22 10:25:45;;;;;;;18.77;7.75;;;;;;;30.44;52.10;96537.69;5004489;28;20050;-68
2023/06/22 10:28:11;;;;;;;15.57;6.60;;;;;;;29.76;55.34;96534.31;4999409;28;20534;-67
2023/06/22 10:30:36;;;;;;;19.52;6.82;;;;;;;30.28;53.71;96531.38;4995924;28;20037;-65
2023/06/22 10:33:04;;;;;;;16.85;7.00;;;;;;;28.72;59.01;96524.47;5003443;28;20049;-74
2023/06/22 10:35:30;;;;;;;14.73;6.35;;;;;;;28.83;58.83;96518.19;5005083;28;20047;-67
2023/06/22 10:37:56;;;;;;;18.35;7.43;;;;;;;29.67;56.46;96526.00;5002975;28;20657;-67
2023/06/22 10:40:21;;;;;;;20.23;6.55;;;;;;;30.81;52.40;96511.38;4999527;28;20599;-67
2023/06/22 10:42:46;;;;;;;20.02;7.80;;;;;;;30.56;52.95;96516.69;5004158;28;20045;-67
2023/06/22 10:45:12;;;;;;;15.90;5.90;;;;;;;31.04;51.83;96515.09;4998735;28;20044;-67
2023/06/22 10:47:38;;;;;;;17.55;6.63;;;;;;;31.25;52.16;96505.13;5003630;28;20679;-67
2023/06/22 10:50:04;;;;;;;17.33;6.38;;;;;;;32.12;49.89;96513.97;5000497;28;20045;-73
2023/06/22 10:52:29;;;;;;;14.10;6.95;;;;;;;29.42;56.51;96505.00;5003153;28;20037;-68
2023/06/22 10:54:55;;;;;;;18.85;7.40;;;;;;;29.81;55.92;96502.56;5003350;28;20440;-68
2023/06/22 10:57:21;;;;;;;14.13;6.30;;;;;;;31.03;52.74;96500.19;4998546;28;20531;-67
2023/06/22 10:59:47;;;;;;;15.48;6.00;;;;;;;32.06;49.33;96506.78;5004003;28;20418;-70
2023/06/22 11:02:12;;;;;;;20.90;6.25;;;;;;;32.41;47.21;96523.19;4998596;28;20133;-67
2023/06/22 11:04:38;;;;;;;14.63;6.45;;;;;;;31.79;47.40;96517.56;5003294;28;20108;-68
2023/06/22 11:07:04;;;;;;;17.60;7.03;;;;;;;30.38;51.77;96512.22;5000695;28;20518;-75
2023/06/22 11:09:29;;;;;;;15.75;7.03;;;;;;;30.90;51.55;96504.72;5001566;28;20133;-69
2023/06/22 11:11:55;;;;;;;23.27;6.95;;;;;;;31.50;49.68;96516.78;5004465;28;20065;-67
2023/06/22 11:14:22;;;;;;;18.90;9.10;;;;;;;29.37;54.65;96512.16;5000237;28;20053;-67
2023/06/22 11:16:48;;;;;;;18.17;6.22;;;;;;;30.36;51.34;96506.31;5003913;28;20141;-70
2023/06/22 11:19:13;;;;;;;20.42;6.90;;;;;;;30.87;50.14;96498.81;4990268;28;20038;-66